sensor_id;sensor_type;location;lat;lon;timestamp;P1;durP1;ratioP1;P2;durP2;ratioP2
71566;SDS011;59403;47.456;19.120;2024-03-08T00:00:04;25.23;;;12.25;;
71566;SDS011;59403;47.456;19.120;2024-03-08T00:02:37;22.77;;;11.70;;
71566;SDS011;59403;47.456;19.120;2024-03-08T00:05:04;24.13;;;11.97;;
71566;SDS011;59403;47.456;19.120;2024-03-08T00:07:33;23.12;;;12.88;;
71566;SDS011;59403;47.456;19.120;2024-03-08T00:10:02;24.75;;;12.50;;
71566;SDS011;59403;47.456;19.120;2024-03-08T00:12:29;21.80;;;12.05;;
71566;SDS011;59403;47.456;19.120;2024-03-08T00:14:55;23.05;;;12.50;;
71566;SDS011;59403;47.456;19.120;2024-03-08T00:17:22;22.53;;;11.27;;
71566;SDS011;59403;47.456;19.120;2024-03-08T00:19:49;25.35;;;12.48;;
71566;SDS011;59403;47.456;19.120;2024-03-08T00:22:16;23.15;;;12.18;;
71566;SDS011;59403;47.456;19.120;2024-03-08T00:24:42;21.80;;;11.43;;
71566;SDS011;59403;47.456;19.120;2024-03-08T00:27:10;24.02;;;12.52;;
71566;SDS011;59403;47.456;19.120;2024-03-08T00:29:37;28.57;;;13.10;;
71566;SDS011;59403;47.456;19.120;2024-03-08T00:32:05;24.50;;;12.15;;
71566;SDS011;59403;47.456;19.120;2024-03-08T00:34:32;24.85;;;12.73;;
71566;SDS011;59403;47.456;19.120;2024-03-08T00:37:01;26.05;;;12.73;;
71566;SDS011;59403;47.456;19.120;2024-03-08T00:39:28;23.08;;;12.32;;
71566;SDS011;59403;47.456;19.120;2024-03-08T00:41:54;24.27;;;12.07;;
71566;SDS011;59403;47.456;19.120;2024-03-08T00:44:22;25.08;;;12.90;;
71566;SDS011;59403;47.456;19.120;2024-03-08T00:46:49;26.80;;;12.63;;
71566;SDS011;59403;47.456;19.120;2024-03-08T00:49:16;23.67;;;12.37;;
71566;SDS011;59403;47.456;19.120;2024-03-08T00:51:43;23.35;;;11.88;;
71566;SDS011;59403;47.456;19.120;2024-03-08T00:54:09;27.83;;;12.07;;
71566;SDS011;59403;47.456;19.120;2024-03-08T00:56:36;24.65;;;12.23;;
71566;SDS011;59403;47.456;19.120;2024-03-08T00:59:04;26.65;;;13.57;;
71566;SDS011;59403;47.456;19.120;2024-03-08T01:01:32;26.58;;;13.50;;
71566;SDS011;59403;47.456;19.120;2024-03-08T01:03:59;24.17;;;12.82;;
71566;SDS011;59403;47.456;19.120;2024-03-08T01:06:26;34.07;;;14.57;;
71566;SDS011;59403;47.456;19.120;2024-03-08T01:08:53;29.25;;;14.55;;
71566;SDS011;59403;47.456;19.120;2024-03-08T01:11:19;30.98;;;14.32;;
71566;SDS011;59403;47.456;19.120;2024-03-08T01:13:46;29.67;;;14.05;;
71566;SDS011;59403;47.456;19.120;2024-03-08T01:16:12;30.08;;;14.55;;
71566;SDS011;59403;47.456;19.120;2024-03-08T01:18:40;31.93;;;14.97;;
71566;SDS011;59403;47.456;19.120;2024-03-08T01:21:07;32.75;;;15.88;;
71566;SDS011;59403;47.456;19.120;2024-03-08T01:23:33;32.00;;;15.68;;
71566;SDS011;59403;47.456;19.120;2024-03-08T01:26:00;32.72;;;15.52;;
71566;SDS011;59403;47.456;19.120;2024-03-08T01:28:27;36.95;;;16.58;;
71566;SDS011;59403;47.456;19.120;2024-03-08T01:30:54;32.27;;;15.70;;
71566;SDS011;59403;47.456;19.120;2024-03-08T01:33:22;38.63;;;16.87;;
71566;SDS011;59403;47.456;19.120;2024-03-08T01:35:50;33.63;;;15.98;;
71566;SDS011;59403;47.456;19.120;2024-03-08T01:38:17;36.47;;;17.17;;
71566;SDS011;59403;47.456;19.120;2024-03-08T01:40:46;36.80;;;16.92;;
71566;SDS011;59403;47.456;19.120;2024-03-08T01:43:17;38.17;;;17.33;;
71566;SDS011;59403;47.456;19.120;2024-03-08T01:45:44;36.67;;;18.67;;
71566;SDS011;59403;47.456;19.120;2024-03-08T01:48:11;38.25;;;17.60;;
71566;SDS011;59403;47.456;19.120;2024-03-08T01:50:39;37.90;;;17.45;;
71566;SDS011;59403;47.456;19.120;2024-03-08T01:53:08;40.97;;;17.98;;
71566;SDS011;59403;47.456;19.120;2024-03-08T01:55:37;37.13;;;17.27;;
71566;SDS011;59403;47.456;19.120;2024-03-08T01:58:04;40.58;;;18.58;;
71566;SDS011;59403;47.456;19.120;2024-03-08T02:00:32;46.22;;;19.75;;
71566;SDS011;59403;47.456;19.120;2024-03-08T02:03:00;43.40;;;19.37;;
71566;SDS011;59403;47.456;19.120;2024-03-08T02:05:27;46.05;;;18.60;;
71566;SDS011;59403;47.456;19.120;2024-03-08T02:07:54;42.27;;;18.73;;
71566;SDS011;59403;47.456;19.120;2024-03-08T02:10:23;41.85;;;18.35;;
71566;SDS011;59403;47.456;19.120;2024-03-08T02:12:50;43.60;;;18.80;;
71566;SDS011;59403;47.456;19.120;2024-03-08T02:15:17;41.10;;;18.77;;
71566;SDS011;59403;47.456;19.120;2024-03-08T02:17:44;42.38;;;19.73;;
71566;SDS011;59403;47.456;19.120;2024-03-08T02:20:11;43.60;;;19.23;;
71566;SDS011;59403;47.456;19.120;2024-03-08T02:22:39;39.33;;;19.40;;
71566;SDS011;59403;47.456;19.120;2024-03-08T02:25:06;39.38;;;18.83;;
71566;SDS011;59403;47.456;19.120;2024-03-08T02:27:34;40.75;;;18.23;;
71566;SDS011;59403;47.456;19.120;2024-03-08T02:30:01;41.80;;;19.12;;
71566;SDS011;59403;47.456;19.120;2024-03-08T02:32:27;42.27;;;19.03;;
71566;SDS011;59403;47.456;19.120;2024-03-08T02:34:55;44.50;;;18.33;;
71566;SDS011;59403;47.456;19.120;2024-03-08T02:37:25;42.42;;;19.02;;
71566;SDS011;59403;47.456;19.120;2024-03-08T02:39:53;41.80;;;18.80;;
71566;SDS011;59403;47.456;19.120;2024-03-08T02:42:20;43.55;;;19.30;;
71566;SDS011;59403;47.456;19.120;2024-03-08T02:44:47;43.00;;;19.50;;
71566;SDS011;59403;47.456;19.120;2024-03-08T02:47:14;45.00;;;20.02;;
71566;SDS011;59403;47.456;19.120;2024-03-08T02:49:41;39.67;;;17.80;;
71566;SDS011;59403;47.456;19.120;2024-03-08T02:52:07;47.28;;;19.85;;
71566;SDS011;59403;47.456;19.120;2024-03-08T02:54:34;43.15;;;19.15;;
71566;SDS011;59403;47.456;19.120;2024-03-08T02:57:03;45.93;;;19.73;;
71566;SDS011;59403;47.456;19.120;2024-03-08T02:59:32;47.62;;;19.70;;
71566;SDS011;59403;47.456;19.120;2024-03-08T03:01:59;43.30;;;18.80;;
71566;SDS011;59403;47.456;19.120;2024-03-08T03:04:26;41.20;;;19.05;;
71566;SDS011;59403;47.456;19.120;2024-03-08T03:06:52;42.62;;;19.10;;
71566;SDS011;59403;47.456;19.120;2024-03-08T03:09:19;43.33;;;18.67;;
71566;SDS011;59403;47.456;19.120;2024-03-08T03:11:49;46.60;;;19.55;;
71566;SDS011;59403;47.456;19.120;2024-03-08T03:14:17;43.95;;;19.75;;
71566;SDS011;59403;47.456;19.120;2024-03-08T03:16:44;45.10;;;19.87;;
71566;SDS011;59403;47.456;19.120;2024-03-08T03:19:11;43.83;;;18.52;;
71566;SDS011;59403;47.456;19.120;2024-03-08T03:21:37;46.63;;;19.60;;
71566;SDS011;59403;47.456;19.120;2024-03-08T03:24:04;40.90;;;18.90;;
71566;SDS011;59403;47.456;19.120;2024-03-08T03:26:35;49.28;;;20.15;;
71566;SDS011;59403;47.456;19.120;2024-03-08T03:29:02;44.00;;;18.98;;
71566;SDS011;59403;47.456;19.120;2024-03-08T03:31:32;47.83;;;19.60;;
71566;SDS011;59403;47.456;19.120;2024-03-08T03:33:59;46.23;;;19.47;;
71566;SDS011;59403;47.456;19.120;2024-03-08T03:36:28;45.38;;;19.45;;
71566;SDS011;59403;47.456;19.120;2024-03-08T03:38:54;43.42;;;18.85;;
71566;SDS011;59403;47.456;19.120;2024-03-08T03:41:30;44.75;;;18.87;;
71566;SDS011;59403;47.456;19.120;2024-03-08T03:43:56;41.80;;;18.58;;
71566;SDS011;59403;47.456;19.120;2024-03-08T03:46:24;44.40;;;18.43;;
71566;SDS011;59403;47.456;19.120;2024-03-08T03:48:53;49.08;;;19.70;;
71566;SDS011;59403;47.456;19.120;2024-03-08T03:51:20;45.88;;;19.30;;
71566;SDS011;59403;47.456;19.120;2024-03-08T03:53:47;46.42;;;19.95;;
71566;SDS011;59403;47.456;19.120;2024-03-08T03:56:13;46.75;;;20.55;;
71566;SDS011;59403;47.456;19.120;2024-03-08T03:58:40;44.37;;;18.90;;
71566;SDS011;59403;47.456;19.120;2024-03-08T04:01:07;43.87;;;19.10;;
71566;SDS011;59403;47.456;19.120;2024-03-08T04:03:34;44.65;;;19.02;;
71566;SDS011;59403;47.456;19.120;2024-03-08T04:06:03;46.40;;;19.85;;
71566;SDS011;59403;47.456;19.120;2024-03-08T04:08:30;44.38;;;20.10;;
71566;SDS011;59403;47.456;19.120;2024-03-08T04:10:59;46.17;;;19.27;;
71566;SDS011;59403;47.456;19.120;2024-03-08T04:13:26;45.00;;;20.12;;
71566;SDS011;59403;47.456;19.120;2024-03-08T04:15:52;46.85;;;19.65;;
71566;SDS011;59403;47.456;19.120;2024-03-08T04:18:19;49.97;;;20.92;;
71566;SDS011;59403;47.456;19.120;2024-03-08T04:20:45;48.67;;;20.85;;
71566;SDS011;59403;47.456;19.120;2024-03-08T04:23:14;53.93;;;21.37;;
71566;SDS011;59403;47.456;19.120;2024-03-08T04:25:41;50.90;;;21.35;;
71566;SDS011;59403;47.456;19.120;2024-03-08T04:28:08;46.53;;;19.90;;
71566;SDS011;59403;47.456;19.120;2024-03-08T04:30:36;52.50;;;20.65;;
71566;SDS011;59403;47.456;19.120;2024-03-08T04:33:04;47.05;;;19.35;;
71566;SDS011;59403;47.456;19.120;2024-03-08T04:35:31;49.40;;;19.57;;
71566;SDS011;59403;47.456;19.120;2024-03-08T04:37:57;46.30;;;20.25;;
71566;SDS011;59403;47.456;19.120;2024-03-08T04:40:25;48.10;;;19.58;;
71566;SDS011;59403;47.456;19.120;2024-03-08T04:42:52;46.17;;;20.17;;
71566;SDS011;59403;47.456;19.120;2024-03-08T04:45:19;46.13;;;19.30;;
71566;SDS011;59403;47.456;19.120;2024-03-08T04:47:46;47.37;;;19.80;;
71566;SDS011;59403;47.456;19.120;2024-03-08T04:50:13;47.42;;;19.70;;
71566;SDS011;59403;47.456;19.120;2024-03-08T04:52:39;48.20;;;19.02;;
71566;SDS011;59403;47.456;19.120;2024-03-08T04:55:06;48.30;;;20.25;;
71566;SDS011;59403;47.456;19.120;2024-03-08T04:57:34;45.70;;;20.00;;
71566;SDS011;59403;47.456;19.120;2024-03-08T05:00:01;49.20;;;19.57;;
71566;SDS011;59403;47.456;19.120;2024-03-08T05:02:29;49.47;;;20.10;;
71566;SDS011;59403;47.456;19.120;2024-03-08T05:04:57;46.53;;;19.27;;
71566;SDS011;59403;47.456;19.120;2024-03-08T05:07:23;48.38;;;19.48;;
71566;SDS011;59403;47.456;19.120;2024-03-08T05:09:51;48.33;;;19.92;;
71566;SDS011;59403;47.456;19.120;2024-03-08T05:12:17;46.17;;;19.43;;
71566;SDS011;59403;47.456;19.120;2024-03-08T05:14:46;49.30;;;19.77;;
71566;SDS011;59403;47.456;19.120;2024-03-08T05:17:25;45.75;;;19.02;;
71566;SDS011;59403;47.456;19.120;2024-03-08T05:19:53;46.30;;;20.10;;
71566;SDS011;59403;47.456;19.120;2024-03-08T05:22:19;46.60;;;19.48;;
71566;SDS011;59403;47.456;19.120;2024-03-08T05:24:46;45.83;;;18.60;;
71566;SDS011;59403;47.456;19.120;2024-03-08T05:27:12;47.20;;;20.15;;
71566;SDS011;59403;47.456;19.120;2024-03-08T05:29:39;46.00;;;18.35;;
71566;SDS011;59403;47.456;19.120;2024-03-08T05:32:07;46.22;;;20.35;;
71566;SDS011;59403;47.456;19.120;2024-03-08T05:34:34;45.15;;;18.20;;
71566;SDS011;59403;47.456;19.120;2024-03-08T05:37:01;47.07;;;20.00;;
71566;SDS011;59403;47.456;19.120;2024-03-08T05:39:28;43.50;;;20.23;;
71566;SDS011;59403;47.456;19.120;2024-03-08T05:41:54;49.97;;;20.02;;
71566;SDS011;59403;47.456;19.120;2024-03-08T05:44:21;49.28;;;20.33;;
71566;SDS011;59403;47.456;19.120;2024-03-08T05:46:48;45.97;;;19.45;;
71566;SDS011;59403;47.456;19.120;2024-03-08T05:49:17;44.00;;;18.93;;
71566;SDS011;59403;47.456;19.120;2024-03-08T05:51:43;60.50;;;28.38;;
71566;SDS011;59403;47.456;19.120;2024-03-08T05:54:12;47.75;;;21.55;;
71566;SDS011;59403;47.456;19.120;2024-03-08T05:56:39;46.70;;;19.08;;
71566;SDS011;59403;47.456;19.120;2024-03-08T05:59:07;48.40;;;18.73;;
71566;SDS011;59403;47.456;19.120;2024-03-08T06:01:34;42.47;;;18.60;;
71566;SDS011;59403;47.456;19.120;2024-03-08T06:04:02;44.17;;;19.45;;
71566;SDS011;59403;47.456;19.120;2024-03-08T06:06:31;45.63;;;19.40;;
71566;SDS011;59403;47.456;19.120;2024-03-08T06:08:59;45.53;;;19.37;;
71566;SDS011;59403;47.456;19.120;2024-03-08T06:11:33;49.00;;;19.73;;
71566;SDS011;59403;47.456;19.120;2024-03-08T06:14:00;47.20;;;20.63;;
71566;SDS011;59403;47.456;19.120;2024-03-08T06:16:27;43.08;;;18.05;;
71566;SDS011;59403;47.456;19.120;2024-03-08T06:18:54;43.13;;;18.42;;
71566;SDS011;59403;47.456;19.120;2024-03-08T06:21:22;45.70;;;18.60;;
71566;SDS011;59403;47.456;19.120;2024-03-08T06:23:52;41.53;;;18.12;;
71566;SDS011;59403;47.456;19.120;2024-03-08T06:26:19;45.50;;;19.37;;
71566;SDS011;59403;47.456;19.120;2024-03-08T06:28:47;43.87;;;17.83;;
71566;SDS011;59403;47.456;19.120;2024-03-08T06:31:13;44.95;;;18.25;;
71566;SDS011;59403;47.456;19.120;2024-03-08T06:33:41;47.58;;;20.10;;
71566;SDS011;59403;47.456;19.120;2024-03-08T06:36:08;49.42;;;20.77;;
71566;SDS011;59403;47.456;19.120;2024-03-08T06:38:36;49.17;;;20.03;;
71566;SDS011;59403;47.456;19.120;2024-03-08T06:41:08;43.45;;;19.05;;
71566;SDS011;59403;47.456;19.120;2024-03-08T06:43:40;46.80;;;19.52;;
71566;SDS011;59403;47.456;19.120;2024-03-08T06:46:07;46.08;;;20.27;;
71566;SDS011;59403;47.456;19.120;2024-03-08T06:48:33;47.00;;;19.25;;
71566;SDS011;59403;47.456;19.120;2024-03-08T06:51:00;49.13;;;19.73;;
71566;SDS011;59403;47.456;19.120;2024-03-08T06:53:27;48.15;;;20.30;;
71566;SDS011;59403;47.456;19.120;2024-03-08T06:55:54;49.70;;;20.60;;
71566;SDS011;59403;47.456;19.120;2024-03-08T06:58:22;48.60;;;20.02;;
71566;SDS011;59403;47.456;19.120;2024-03-08T07:00:49;46.42;;;19.17;;
71566;SDS011;59403;47.456;19.120;2024-03-08T07:03:19;45.33;;;20.17;;
71566;SDS011;59403;47.456;19.120;2024-03-08T07:05:54;47.03;;;20.33;;
71566;SDS011;59403;47.456;19.120;2024-03-08T07:08:23;45.28;;;19.50;;
71566;SDS011;59403;47.456;19.120;2024-03-08T07:10:49;51.55;;;20.33;;
71566;SDS011;59403;47.456;19.120;2024-03-08T07:13:20;45.28;;;19.65;;
71566;SDS011;59403;47.456;19.120;2024-03-08T07:15:51;45.40;;;19.93;;
71566;SDS011;59403;47.456;19.120;2024-03-08T07:18:22;47.58;;;18.90;;
71566;SDS011;59403;47.456;19.120;2024-03-08T07:20:49;47.70;;;19.20;;
71566;SDS011;59403;47.456;19.120;2024-03-08T07:23:15;53.13;;;21.17;;
71566;SDS011;59403;47.456;19.120;2024-03-08T07:26:02;47.75;;;19.70;;
71566;SDS011;59403;47.456;19.120;2024-03-08T07:28:29;50.43;;;20.13;;
71566;SDS011;59403;47.456;19.120;2024-03-08T07:30:57;54.10;;;21.40;;
71566;SDS011;59403;47.456;19.120;2024-03-08T07:33:37;55.05;;;22.05;;
71566;SDS011;59403;47.456;19.120;2024-03-08T07:36:04;52.08;;;20.42;;
71566;SDS011;59403;47.456;19.120;2024-03-08T07:38:31;49.03;;;20.42;;
71566;SDS011;59403;47.456;19.120;2024-03-08T07:40:57;52.10;;;20.73;;
71566;SDS011;59403;47.456;19.120;2024-03-08T07:43:24;54.22;;;20.60;;
71566;SDS011;59403;47.456;19.120;2024-03-08T07:45:51;50.65;;;20.58;;
71566;SDS011;59403;47.456;19.120;2024-03-08T07:48:19;52.03;;;20.05;;
71566;SDS011;59403;47.456;19.120;2024-03-08T07:50:46;57.33;;;21.85;;
71566;SDS011;59403;47.456;19.120;2024-03-08T07:53:15;54.57;;;21.13;;
71566;SDS011;59403;47.456;19.120;2024-03-08T07:55:41;52.10;;;20.88;;
71566;SDS011;59403;47.456;19.120;2024-03-08T07:58:09;50.80;;;19.87;;
71566;SDS011;59403;47.456;19.120;2024-03-08T08:00:37;55.78;;;21.67;;
71566;SDS011;59403;47.456;19.120;2024-03-08T08:03:03;51.63;;;20.20;;
71566;SDS011;59403;47.456;19.120;2024-03-08T08:05:31;51.90;;;19.57;;
71566;SDS011;59403;47.456;19.120;2024-03-08T08:08:00;56.50;;;21.95;;
71566;SDS011;59403;47.456;19.120;2024-03-08T08:10:29;53.92;;;20.98;;
71566;SDS011;59403;47.456;19.120;2024-03-08T08:12:57;48.47;;;20.17;;
71566;SDS011;59403;47.456;19.120;2024-03-08T08:15:24;54.15;;;20.65;;
71566;SDS011;59403;47.456;19.120;2024-03-08T08:17:53;53.60;;;21.53;;
71566;SDS011;59403;47.456;19.120;2024-03-08T08:20:19;57.08;;;22.13;;
71566;SDS011;59403;47.456;19.120;2024-03-08T08:22:48;54.30;;;20.42;;
71566;SDS011;59403;47.456;19.120;2024-03-08T08:25:15;57.70;;;21.50;;
71566;SDS011;59403;47.456;19.120;2024-03-08T08:27:45;58.67;;;22.30;;
71566;SDS011;59403;47.456;19.120;2024-03-08T08:30:12;52.67;;;20.30;;
71566;SDS011;59403;47.456;19.120;2024-03-08T08:32:39;54.55;;;21.00;;
71566;SDS011;59403;47.456;19.120;2024-03-08T08:35:07;52.67;;;21.08;;
71566;SDS011;59403;47.456;19.120;2024-03-08T08:37:38;62.45;;;21.00;;
71566;SDS011;59403;47.456;19.120;2024-03-08T08:40:06;54.85;;;21.80;;
71566;SDS011;59403;47.456;19.120;2024-03-08T08:42:39;58.23;;;22.07;;
71566;SDS011;59403;47.456;19.120;2024-03-08T08:45:06;55.63;;;21.62;;
71566;SDS011;59403;47.456;19.120;2024-03-08T08:47:34;51.03;;;21.50;;
71566;SDS011;59403;47.456;19.120;2024-03-08T08:50:01;57.08;;;21.52;;
71566;SDS011;59403;47.456;19.120;2024-03-08T08:52:29;55.20;;;21.23;;
71566;SDS011;59403;47.456;19.120;2024-03-08T08:54:55;53.30;;;19.80;;
71566;SDS011;59403;47.456;19.120;2024-03-08T08:57:24;53.22;;;20.37;;
71566;SDS011;59403;47.456;19.120;2024-03-08T08:59:52;59.33;;;22.58;;
71566;SDS011;59403;47.456;19.120;2024-03-08T09:02:18;55.65;;;21.05;;
71566;SDS011;59403;47.456;19.120;2024-03-08T09:04:46;52.45;;;20.62;;
71566;SDS011;59403;47.456;19.120;2024-03-08T09:07:13;57.47;;;20.83;;
71566;SDS011;59403;47.456;19.120;2024-03-08T09:09:41;50.70;;;20.02;;
71566;SDS011;59403;47.456;19.120;2024-03-08T09:12:08;51.47;;;20.17;;
71566;SDS011;59403;47.456;19.120;2024-03-08T09:14:39;52.45;;;19.90;;
71566;SDS011;59403;47.456;19.120;2024-03-08T09:17:06;51.78;;;21.05;;
71566;SDS011;59403;47.456;19.120;2024-03-08T09:19:33;54.87;;;21.67;;
71566;SDS011;59403;47.456;19.120;2024-03-08T09:22:00;47.75;;;20.75;;
71566;SDS011;59403;47.456;19.120;2024-03-08T09:24:28;58.33;;;25.30;;
71566;SDS011;59403;47.456;19.120;2024-03-08T09:26:56;53.05;;;21.58;;
71566;SDS011;59403;47.456;19.120;2024-03-08T09:29:23;51.20;;;21.52;;
71566;SDS011;59403;47.456;19.120;2024-03-08T09:31:51;50.63;;;20.63;;
71566;SDS011;59403;47.456;19.120;2024-03-08T09:34:18;47.33;;;21.00;;
71566;SDS011;59403;47.456;19.120;2024-03-08T09:36:44;47.15;;;19.48;;
71566;SDS011;59403;47.456;19.120;2024-03-08T09:39:11;49.58;;;21.27;;
71566;SDS011;59403;47.456;19.120;2024-03-08T09:41:42;49.33;;;21.45;;
71566;SDS011;59403;47.456;19.120;2024-03-08T09:44:09;52.27;;;20.57;;
71566;SDS011;59403;47.456;19.120;2024-03-08T09:46:36;51.37;;;20.98;;
71566;SDS011;59403;47.456;19.120;2024-03-08T09:49:04;50.83;;;19.55;;
71566;SDS011;59403;47.456;19.120;2024-03-08T09:51:31;50.12;;;21.17;;
71566;SDS011;59403;47.456;19.120;2024-03-08T09:54:00;46.08;;;19.40;;
71566;SDS011;59403;47.456;19.120;2024-03-08T09:56:29;46.50;;;20.30;;
71566;SDS011;59403;47.456;19.120;2024-03-08T09:58:58;50.22;;;21.10;;
71566;SDS011;59403;47.456;19.120;2024-03-08T10:01:46;49.05;;;19.80;;
71566;SDS011;59403;47.456;19.120;2024-03-08T10:04:14;46.63;;;19.45;;
71566;SDS011;59403;47.456;19.120;2024-03-08T10:06:42;49.95;;;21.17;;
71566;SDS011;59403;47.456;19.120;2024-03-08T10:09:09;48.10;;;21.13;;
71566;SDS011;59403;47.456;19.120;2024-03-08T10:11:36;44.08;;;19.95;;
71566;SDS011;59403;47.456;19.120;2024-03-08T10:14:03;45.08;;;20.00;;
71566;SDS011;59403;47.456;19.120;2024-03-08T10:16:31;40.85;;;18.67;;
71566;SDS011;59403;47.456;19.120;2024-03-08T10:18:58;41.90;;;18.85;;
71566;SDS011;59403;47.456;19.120;2024-03-08T10:21:26;43.40;;;18.80;;
71566;SDS011;59403;47.456;19.120;2024-03-08T10:23:53;47.25;;;20.33;;
71566;SDS011;59403;47.456;19.120;2024-03-08T10:26:20;46.90;;;19.10;;
71566;SDS011;59403;47.456;19.120;2024-03-08T10:28:47;46.67;;;20.55;;
71566;SDS011;59403;47.456;19.120;2024-03-08T10:31:14;45.30;;;19.05;;
71566;SDS011;59403;47.456;19.120;2024-03-08T10:33:41;43.43;;;19.47;;
71566;SDS011;59403;47.456;19.120;2024-03-08T10:36:09;46.13;;;19.10;;
71566;SDS011;59403;47.456;19.120;2024-03-08T10:38:38;42.28;;;19.15;;
71566;SDS011;59403;47.456;19.120;2024-03-08T10:41:07;47.35;;;19.52;;
71566;SDS011;59403;47.456;19.120;2024-03-08T10:43:36;54.55;;;20.48;;
71566;SDS011;59403;47.456;19.120;2024-03-08T10:46:21;45.43;;;19.03;;
71566;SDS011;59403;47.456;19.120;2024-03-08T10:48:55;50.65;;;19.65;;
71566;SDS011;59403;47.456;19.120;2024-03-08T10:51:28;49.22;;;20.88;;
71566;SDS011;59403;47.456;19.120;2024-03-08T10:53:57;48.47;;;20.15;;
71566;SDS011;59403;47.456;19.120;2024-03-08T10:56:25;46.97;;;20.42;;
71566;SDS011;59403;47.456;19.120;2024-03-08T10:58:52;48.37;;;20.83;;
71566;SDS011;59403;47.456;19.120;2024-03-08T11:01:20;45.67;;;20.00;;
71566;SDS011;59403;47.456;19.120;2024-03-08T11:03:47;51.08;;;21.02;;
71566;SDS011;59403;47.456;19.120;2024-03-08T11:06:18;44.97;;;20.02;;
71566;SDS011;59403;47.456;19.120;2024-03-08T11:08:49;49.80;;;20.37;;
71566;SDS011;59403;47.456;19.120;2024-03-08T11:11:27;48.20;;;21.07;;
71566;SDS011;59403;47.456;19.120;2024-03-08T11:13:59;45.05;;;19.23;;
71566;SDS011;59403;47.456;19.120;2024-03-08T11:16:37;44.97;;;20.55;;
71566;SDS011;59403;47.456;19.120;2024-03-08T11:19:23;48.70;;;21.37;;
71566;SDS011;59403;47.456;19.120;2024-03-08T11:21:57;46.95;;;20.40;;
71566;SDS011;59403;47.456;19.120;2024-03-08T11:24:25;44.53;;;19.83;;
71566;SDS011;59403;47.456;19.120;2024-03-08T11:26:55;45.12;;;20.05;;
71566;SDS011;59403;47.456;19.120;2024-03-08T11:29:34;48.87;;;21.60;;
71566;SDS011;59403;47.456;19.120;2024-03-08T11:32:03;51.83;;;22.60;;
71566;SDS011;59403;47.456;19.120;2024-03-08T11:34:31;51.10;;;21.20;;
71566;SDS011;59403;47.456;19.120;2024-03-08T11:36:58;53.67;;;23.13;;
71566;SDS011;59403;47.456;19.120;2024-03-08T11:39:25;47.95;;;22.00;;
71566;SDS011;59403;47.456;19.120;2024-03-08T11:41:53;47.53;;;21.30;;
71566;SDS011;59403;47.456;19.120;2024-03-08T11:44:24;38.35;;;18.73;;
71566;SDS011;59403;47.456;19.120;2024-03-08T11:46:53;38.28;;;19.35;;
71566;SDS011;59403;47.456;19.120;2024-03-08T11:49:19;36.50;;;18.50;;
71566;SDS011;59403;47.456;19.120;2024-03-08T11:51:46;35.25;;;18.08;;
71566;SDS011;59403;47.456;19.120;2024-03-08T11:54:13;38.53;;;19.55;;
71566;SDS011;59403;47.456;19.120;2024-03-08T11:56:40;43.20;;;19.48;;
71566;SDS011;59403;47.456;19.120;2024-03-08T11:59:10;44.90;;;21.40;;
71566;SDS011;59403;47.456;19.120;2024-03-08T12:01:39;45.67;;;20.77;;
71566;SDS011;59403;47.456;19.120;2024-03-08T12:04:05;46.72;;;21.05;;
71566;SDS011;59403;47.456;19.120;2024-03-08T12:06:39;49.83;;;22.55;;
71566;SDS011;59403;47.456;19.120;2024-03-08T12:09:10;38.75;;;19.12;;
71566;SDS011;59403;47.456;19.120;2024-03-08T12:11:38;35.20;;;18.23;;
71566;SDS011;59403;47.456;19.120;2024-03-08T12:14:06;33.30;;;17.30;;
71566;SDS011;59403;47.456;19.120;2024-03-08T12:16:32;35.20;;;18.23;;
71566;SDS011;59403;47.456;19.120;2024-03-08T12:19:01;35.28;;;18.48;;
71566;SDS011;59403;47.456;19.120;2024-03-08T12:21:31;35.10;;;17.20;;
71566;SDS011;59403;47.456;19.120;2024-03-08T12:24:03;33.38;;;16.80;;
71566;SDS011;59403;47.456;19.120;2024-03-08T12:26:33;26.73;;;14.77;;
71566;SDS011;59403;47.456;19.120;2024-03-08T12:29:17;23.60;;;13.55;;
71566;SDS011;59403;47.456;19.120;2024-03-08T12:31:47;25.30;;;14.38;;
71566;SDS011;59403;47.456;19.120;2024-03-08T12:34:18;21.02;;;12.85;;
71566;SDS011;59403;47.456;19.120;2024-03-08T12:36:45;21.05;;;12.35;;
71566;SDS011;59403;47.456;19.120;2024-03-08T12:39:17;21.47;;;13.60;;
71566;SDS011;59403;47.456;19.120;2024-03-08T12:41:47;24.70;;;13.62;;
71566;SDS011;59403;47.456;19.120;2024-03-08T12:44:14;23.48;;;13.70;;
71566;SDS011;59403;47.456;19.120;2024-03-08T12:46:41;24.70;;;14.05;;
71566;SDS011;59403;47.456;19.120;2024-03-08T12:49:10;22.80;;;13.13;;
71566;SDS011;59403;47.456;19.120;2024-03-08T12:51:38;25.10;;;14.13;;
71566;SDS011;59403;47.456;19.120;2024-03-08T12:54:06;24.35;;;13.48;;
71566;SDS011;59403;47.456;19.120;2024-03-08T12:56:33;27.98;;;15.10;;
71566;SDS011;59403;47.456;19.120;2024-03-08T12:59:02;26.12;;;15.10;;
71566;SDS011;59403;47.456;19.120;2024-03-08T13:01:30;27.02;;;14.40;;
71566;SDS011;59403;47.456;19.120;2024-03-08T13:03:58;24.07;;;13.77;;
71566;SDS011;59403;47.456;19.120;2024-03-08T13:06:25;18.10;;;11.90;;
71566;SDS011;59403;47.456;19.120;2024-03-08T13:08:55;19.73;;;11.68;;
71566;SDS011;59403;47.456;19.120;2024-03-08T13:11:21;18.40;;;10.95;;
71566;SDS011;59403;47.456;19.120;2024-03-08T13:13:49;20.95;;;11.43;;
71566;SDS011;59403;47.456;19.120;2024-03-08T13:16:16;21.50;;;13.00;;
71566;SDS011;59403;47.456;19.120;2024-03-08T13:18:44;24.15;;;13.18;;
71566;SDS011;59403;47.456;19.120;2024-03-08T13:21:11;28.80;;;15.18;;
71566;SDS011;59403;47.456;19.120;2024-03-08T13:23:40;27.13;;;14.80;;
71566;SDS011;59403;47.456;19.120;2024-03-08T13:26:12;30.15;;;16.02;;
71566;SDS011;59403;47.456;19.120;2024-03-08T13:28:40;34.03;;;17.30;;
71566;SDS011;59403;47.456;19.120;2024-03-08T13:31:07;34.58;;;16.75;;
71566;SDS011;59403;47.456;19.120;2024-03-08T13:33:35;30.62;;;15.45;;
71566;SDS011;59403;47.456;19.120;2024-03-08T13:36:02;31.92;;;16.45;;
71566;SDS011;59403;47.456;19.120;2024-03-08T13:38:29;31.45;;;15.82;;
71566;SDS011;59403;47.456;19.120;2024-03-08T13:40:57;32.13;;;16.13;;
71566;SDS011;59403;47.456;19.120;2024-03-08T13:43:25;34.00;;;16.05;;
71566;SDS011;59403;47.456;19.120;2024-03-08T13:45:54;33.72;;;16.30;;
71566;SDS011;59403;47.456;19.120;2024-03-08T13:48:21;33.65;;;15.38;;
71566;SDS011;59403;47.456;19.120;2024-03-08T13:50:48;32.67;;;15.60;;
71566;SDS011;59403;47.456;19.120;2024-03-08T13:53:15;35.23;;;16.40;;
71566;SDS011;59403;47.456;19.120;2024-03-08T13:55:42;32.58;;;16.50;;
71566;SDS011;59403;47.456;19.120;2024-03-08T13:58:08;35.17;;;17.10;;
71566;SDS011;59403;47.456;19.120;2024-03-08T14:00:40;34.25;;;16.48;;
71566;SDS011;59403;47.456;19.120;2024-03-08T14:03:09;32.00;;;16.12;;
71566;SDS011;59403;47.456;19.120;2024-03-08T14:05:38;34.20;;;17.00;;
71566;SDS011;59403;47.456;19.120;2024-03-08T14:08:07;31.87;;;15.90;;
71566;SDS011;59403;47.456;19.120;2024-03-08T14:10:37;31.27;;;15.75;;
71566;SDS011;59403;47.456;19.120;2024-03-08T14:13:04;31.70;;;15.82;;